Menu Close Menu
Station Historical Data
Daily Summary for May 31, 2017 Units:  English    Metric   Both
« Previous Day
Next Day »
Daily Weekly Monthly Yearly Custom
  High: Low: Average:
Temperature: 82.1 °F 65.0 °F 71 °F
Dew Point: 68.8 °F 60.9 °F 65 °F
Humidity: 95% 52% 83%
Wind Speed: 1.0mph 0.0mph 0mph
Wind Gust: 5.0mph - -
Wind- - SSW
Pressure: 30.15 in 30.05 in -
Precipitation: 0.00 in    
Historical Graphs
 
 
Tabular Data for May 31, 2017
Time Temperature Dew Point Pressure Wind Wind Speed Wind Gust Humidity Rainfall Rate (Hourly) solar Conditions
00:00 65.6 °F 63.5 °F 30.12 in Calm     93% 0.00 in WeatherDisplay:10.37 W/m2 RA
00:10 65.6 °F 63.5 °F 30.12 in Calm     93% 0.00 in WeatherDisplay:10.37 W/m2 SCT
00:20 65.6 °F 63.5 °F 30.12 in Calm     93% 0.00 in WeatherDisplay:10.37 W/m2 SCT
00:30 65.8 °F 63.7 °F 30.12 in Calm     93% 0.00 in WeatherDisplay:10.37 W/m2 SCT
00:40 65.8 °F 63.7 °F 30.12 in Calm     93% 0.00 in WeatherDisplay:10.37 W/m2 SCT
00:50 65.9 °F 63.8 °F 30.13 in Calm     93% 0.00 in WeatherDisplay:10.37 W/m2 SCT
01:00 65.9 °F 63.8 °F 30.13 in Calm     93% 0.00 in WeatherDisplay:10.37 W/m2 SCT
01:10 65.9 °F 63.8 °F 30.13 in Calm     93% 0.00 in WeatherDisplay:10.37 W/m2 SCT
01:20 65.0 °F 63.5 °F 30.14 in Calm     95% 0.00 in WeatherDisplay:10.37 W/m2 SCT
01:30 65.0 °F 63.5 °F 30.14 in Calm     95% 0.00 in WeatherDisplay:10.37 W/m2 SCT
01:40 65.0 °F 63.5 °F 30.14 in Calm     95% 0.00 in WeatherDisplay:10.37 W/m2 SCT
01:50 65.0 °F 63.5 °F 30.14 in Calm     95% 0.00 in WeatherDisplay:10.37 W/m2 SCT
02:00 65.0 °F 63.5 °F 30.14 in Calm     95% 0.00 in WeatherDisplay:10.37 W/m2 SCT
02:10 65.0 °F 63.5 °F 30.13 in Calm     95% 0.00 in WeatherDisplay:10.37 W/m2 SCT
02:20 65.0 °F 63.5 °F 30.12 in Calm     95% 0.00 in WeatherDisplay:10.37 W/m2 SCT
02:30 65.0 °F 63.5 °F 30.13 in Calm     95% 0.00 in WeatherDisplay:10.37 W/m2 SCT
02:40 65.0 °F 63.5 °F 30.13 in Calm     95% 0.00 in WeatherDisplay:10.37 W/m2 SCT
02:50 65.0 °F 63.5 °F 30.12 in Calm     95% 0.00 in WeatherDisplay:10.37 W/m2 SCT
03:00 65.0 °F 63.5 °F 30.12 in Calm     95% 0.00 in WeatherDisplay:10.37 W/m2 SCT
03:10 65.0 °F 63.5 °F 30.11 in Calm     95% 0.00 in WeatherDisplay:10.37 W/m2 SCT
03:20 65.0 °F 63.5 °F 30.12 in Calm     95% 0.00 in WeatherDisplay:10.37 W/m2 SCT
03:30 65.0 °F 63.5 °F 30.12 in Calm     95% 0.00 in WeatherDisplay:10.37 W/m2 SCT
03:40 65.0 °F 63.5 °F 30.12 in Calm     95% 0.00 in WeatherDisplay:10.37 W/m2 SCT
03:50 65.0 °F 63.5 °F 30.12 in Calm     95% 0.00 in WeatherDisplay:10.37 W/m2 SCT
04:00 65.0 °F 63.5 °F 30.12 in Calm     95% 0.00 in WeatherDisplay:10.37 W/m2 SCT
04:10 65.0 °F 63.5 °F 30.12 in Calm     95% 0.00 in WeatherDisplay:10.37 W/m2 SCT
04:20 65.0 °F 63.5 °F 30.12 in Calm     95% 0.00 in WeatherDisplay:10.37 W/m2 SCT
04:30 65.0 °F 63.5 °F 30.11 in Calm     95% 0.00 in WeatherDisplay:10.37 W/m2 SCT
04:40 65.0 °F 63.5 °F 30.11 in Calm     95% 0.00 in WeatherDisplay:10.37 W/m2 SCT
04:50 65.0 °F 63.5 °F 30.11 in Calm     95% 0.00 in WeatherDisplay:10.37 W/m2 SCT
05:00 65.0 °F 63.5 °F 30.10 in Calm     95% 0.00 in WeatherDisplay:10.37 W/m2 SCT
05:10 65.0 °F 63.5 °F 30.09 in Calm     95% 0.00 in WeatherDisplay:10.37 W/m2 SCT
05:20 65.0 °F 63.5 °F 30.09 in Calm     95% 0.00 in WeatherDisplay:10.37 W/m2 SCT
05:30 65.0 °F 63.5 °F 30.10 in Calm     95% 0.00 in WeatherDisplay:10.37 W/m2 SCT
05:40 65.0 °F 63.5 °F 30.11 in Calm     95% 0.00 in WeatherDisplay:10.37 W/m2 SCT
05:50 65.0 °F 63.5 °F 30.11 in Calm     95% 0.00 in WeatherDisplay:10.37 W/m2 SCT
06:00 65.0 °F 63.5 °F 30.12 in Calm     95% 0.00 in WeatherDisplay:10.37 W/m2 SCT
06:20 65.0 °F 63.5 °F 30.12 in Calm     95% 0.00 in WeatherDisplay:10.37 W/m2 SCT
06:30 65.0 °F 63.5 °F 30.13 in Calm     95% 0.00 in WeatherDisplay:10.37 W/m2 SCT
06:40 65.0 °F 63.5 °F 30.13 in Calm     95% 0.00 in WeatherDisplay:10.37 W/m2 SCT
06:50 65.0 °F 63.5 °F 30.13 in Calm     95% 0.00 in WeatherDisplay:10.37 W/m2 SCT
07:00 65.0 °F 63.5 °F 30.13 in Calm     95% 0.00 in WeatherDisplay:10.37 W/m2 SCT
07:10 65.0 °F 63.5 °F 30.13 in Calm     95% 0.00 in WeatherDisplay:10.37 W/m2 SCT
07:20 65.0 °F 63.5 °F 30.13 in Calm     95% 0.00 in WeatherDisplay:10.37 W/m2 SCT
07:30 65.0 °F 63.5 °F 30.13 in Calm     95% 0.00 in WeatherDisplay:10.37 W/m2 SCT
07:40 65.0 °F 63.5 °F 30.14 in Calm     95% 0.00 in WeatherDisplay:10.37 W/m2 SCT
07:50 65.0 °F 63.5 °F 30.14 in Calm     95% 0.00 in WeatherDisplay:10.37 W/m2 SCT
08:00 65.0 °F 63.5 °F 30.14 in Calm     95% 0.00 in WeatherDisplay:10.37 W/m2 SCT
08:10 65.0 °F 63.5 °F 30.15 in Calm     95% 0.00 in WeatherDisplay:10.37 W/m2 SCT
08:20 65.0 °F 63.5 °F 30.15 in Calm     95% 0.00 in WeatherDisplay:10.37 W/m2 SCT
08:30 65.0 °F 63.5 °F 30.15 in Calm     95% 0.00 in WeatherDisplay:10.37 W/m2 SCT
08:40 65.0 °F 63.5 °F 30.15 in Calm     95% 0.00 in WeatherDisplay:10.37 W/m2 SCT
08:50 67.1 °F 65.3 °F 30.15 in Calm     94% 0.00 in WeatherDisplay:10.37 W/m2 SCT
09:00 67.3 °F 65.5 °F 30.15 in Calm     94% 0.00 in WeatherDisplay:10.37 W/m2 SCT
09:10 67.5 °F 65.7 °F 30.14 in Calm     94% 0.00 in WeatherDisplay:10.37 W/m2 SCT
09:20 67.4 °F 65.6 °F 30.14 in Calm   1.0 mph 94% 0.00 in WeatherDisplay:10.37 W/m2 SCT
09:30 67.7 °F 65.9 °F 30.15 in Calm     94% 0.00 in WeatherDisplay:10.37 W/m2 SCT
09:40 68.2 °F 66.4 °F 30.14 in Calm   1.0 mph 94% 0.00 in WeatherDisplay:10.37 W/m2 SCT
09:50 68.3 °F 66.5 °F 30.14 in Calm     94% 0.00 in WeatherDisplay:10.37 W/m2 SCT
10:00 68.4 °F 66.6 °F 30.14 in Calm     94% 0.00 in WeatherDisplay:10.37 W/m2 SCT
10:10 68.6 °F 66.8 °F 30.14 in Calm     94% 0.00 in WeatherDisplay:10.37 W/m2 SCT
10:20 68.9 °F 67.1 °F 30.14 in Calm     94% 0.00 in WeatherDisplay:10.37 W/m2 SCT
10:30 69.1 °F 67.3 °F 30.14 in Calm   1.0 mph 94% 0.00 in WeatherDisplay:10.37 W/m2 SCT
10:40 69.2 °F 67.4 °F 30.14 in Calm   1.0 mph 94% 0.00 in WeatherDisplay:10.37 W/m2 SCT
10:50 69.5 °F 67.7 °F 30.14 in Calm     94% 0.00 in WeatherDisplay:10.37 W/m2 SCT
11:00 69.6 °F 67.5 °F 30.14 in Calm   2.0 mph 93% 0.00 in WeatherDisplay:10.37 W/m2 SCT
11:10 70.1 °F 67.7 °F 30.14 in Calm   2.0 mph 92% 0.00 in WeatherDisplay:10.37 W/m2 SCT
11:20 70.8 °F 67.7 °F 30.14 in Calm   2.0 mph 90% 0.00 in WeatherDisplay:10.37 W/m2 SCT
11:30 71.5 °F 68.1 °F 30.14 in Calm   2.0 mph 89% 0.00 in WeatherDisplay:10.37 W/m2 SCT
11:40 72.3 °F 67.8 °F 30.14 in Calm   3.0 mph 86% 0.00 in WeatherDisplay:10.37 W/m2 SCT
11:50 73.0 °F 68.2 °F 30.14 in Calm   2.0 mph 85% 0.00 in WeatherDisplay:10.37 W/m2 SCT
12:00 73.5 °F 68.0 °F 30.13 in Calm     83% 0.00 in WeatherDisplay:10.37 W/m2 SCT
12:10 74.0 °F 68.2 °F 30.14 in Calm     82% 0.00 in WeatherDisplay:10.37 W/m2 SCT
12:20 74.4 °F 67.9 °F 30.14 in Calm   2.0 mph 80% 0.00 in WeatherDisplay:10.37 W/m2 SCT
12:30 75.0 °F 68.4 °F 30.13 in Calm   2.0 mph 80% 0.00 in WeatherDisplay:10.37 W/m2 SCT
12:40 75.4 °F 68.1 °F 30.13 in Calm   5.0 mph 78% 0.00 in WeatherDisplay:10.37 W/m2 SCT
12:50 75.6 °F 67.9 °F 30.13 in Calm   3.0 mph 77% 0.00 in WeatherDisplay:10.37 W/m2 SCT
13:00 76.0 °F 68.3 °F 30.12 in WSW 1.0 mph 2.0 mph 77% 0.00 in WeatherDisplay:10.37 W/m2 SCT
13:10 76.3 °F 67.8 °F 30.12 in SW 1.0 mph 2.0 mph 75% 0.00 in WeatherDisplay:10.37 W/m2 SCT
13:20 76.7 °F 67.4 °F 30.12 in Calm   2.0 mph 73% 0.00 in WeatherDisplay:10.37 W/m2 SCT
13:30 76.7 °F 66.2 °F 30.12 in West 1.0 mph 2.0 mph 70% 0.00 in WeatherDisplay:10.37 W/m2 SCT
13:40 76.7 °F 67.8 °F 30.12 in Calm   1.0 mph 74% 0.00 in WeatherDisplay:10.37 W/m2 SCT
13:50 77.1 °F 67.0 °F 30.11 in Calm   2.0 mph 71% 0.00 in WeatherDisplay:10.37 W/m2 SCT
14:00 77.5 °F 66.9 °F 30.11 in Calm   2.0 mph 70% 0.00 in WeatherDisplay:10.37 W/m2 SCT
14:10 78.2 °F 68.8 °F 30.11 in Calm   1.0 mph 73% 0.00 in WeatherDisplay:10.37 W/m2 SCT
14:20 78.9 °F 68.7 °F 30.10 in Calm   2.0 mph 71% 0.00 in WeatherDisplay:10.37 W/m2 SCT
14:30 78.6 °F 66.7 °F 30.10 in Calm   1.0 mph 67% 0.00 in WeatherDisplay:10.37 W/m2 SCT
14:40 78.6 °F 66.3 °F 30.10 in Calm   3.0 mph 66% 0.00 in WeatherDisplay:10.37 W/m2 SCT
14:50 79.0 °F 66.2 °F 30.09 in Calm   5.0 mph 65% 0.00 in WeatherDisplay:10.37 W/m2 SCT
15:00 78.9 °F 65.7 °F 30.09 in Calm   3.0 mph 64% 0.00 in WeatherDisplay:10.37 W/m2 SCT
15:10 79.2 °F 65.5 °F 30.09 in Calm   2.0 mph 63% 0.00 in WeatherDisplay:10.37 W/m2 SCT
15:20 79.0 °F 64.9 °F 30.09 in NE 1.0 mph 2.0 mph 62% 0.00 in WeatherDisplay:10.37 W/m2 SCT
15:30 78.6 °F 66.7 °F 30.09 in Calm   1.0 mph 67% 0.00 in WeatherDisplay:10.37 W/m2 SCT
15:40 79.1 °F 66.3 °F 30.08 in Calm   5.0 mph 65% 0.00 in WeatherDisplay:10.37 W/m2 SCT
15:50 78.9 °F 66.2 °F 30.08 in Calm   1.0 mph 65% 0.00 in WeatherDisplay:10.37 W/m2 SCT
16:00 79.1 °F 65.5 °F 30.08 in Calm   2.0 mph 63% 0.00 in WeatherDisplay:10.37 W/m2 SCT
16:10 79.2 °F 64.6 °F 30.08 in Calm   2.0 mph 61% 0.00 in WeatherDisplay:10.37 W/m2 SCT
16:20 79.7 °F 63.6 °F 30.07 in Calm   2.0 mph 58% 0.00 in WeatherDisplay:10.37 W/m2 SCT
16:30 79.9 °F 64.8 °F 30.07 in Calm   1.0 mph 60% 0.00 in WeatherDisplay:10.37 W/m2 SCT
16:40 80.2 °F 65.5 °F 30.07 in Calm   1.0 mph 61% 0.00 in WeatherDisplay:10.37 W/m2 SCT
16:50 81.2 °F 63.5 °F 30.06 in Calm   2.0 mph 55% 0.00 in WeatherDisplay:10.37 W/m2 SCT
17:00 81.2 °F 64.0 °F 30.06 in Calm   1.0 mph 56% 0.00 in WeatherDisplay:10.37 W/m2 SCT
17:10 81.4 °F 63.7 °F 30.06 in Calm   1.0 mph 55% 0.00 in WeatherDisplay:10.37 W/m2 SCT
17:20 82.1 °F 64.3 °F 30.05 in Calm   1.0 mph 55% 0.00 in WeatherDisplay:10.37 W/m2 SCT
17:30 81.5 °F 64.3 °F 30.05 in Calm   1.0 mph 56% 0.00 in WeatherDisplay:10.37 W/m2 SCT
17:50 80.4 °F 64.8 °F 30.05 in Calm   1.0 mph 59% 0.00 in WeatherDisplay:10.37 W/m2 SCT
18:00 80.2 °F 64.1 °F 30.05 in Calm   2.0 mph 58% 0.00 in WeatherDisplay:10.37 W/m2 SCT
18:10 80.1 °F 60.9 °F 30.05 in Calm   1.0 mph 52% 0.00 in WeatherDisplay:10.37 W/m2 SCT
18:20 80.1 °F 65.0 °F 30.05 in Calm   1.0 mph 60% 0.00 in WeatherDisplay:10.37 W/m2 SCT
18:30 79.4 °F 63.8 °F 30.05 in Calm   1.0 mph 59% 0.00 in WeatherDisplay:10.37 W/m2 SCT
18:40 78.3 °F 65.2 °F 30.05 in Calm   1.0 mph 64% 0.00 in WeatherDisplay:10.37 W/m2 SCT
18:50 77.8 °F 64.7 °F 30.05 in Calm   1.0 mph 64% 0.00 in WeatherDisplay:10.37 W/m2 SCT
19:00 77.1 °F 64.8 °F 30.05 in Calm   2.0 mph 66% 0.00 in WeatherDisplay:10.37 W/m2 SCT
19:10 76.3 °F 65.4 °F 30.05 in Calm   1.0 mph 69% 0.00 in WeatherDisplay:10.37 W/m2 SCT
19:20 75.9 °F 65.0 °F 30.05 in Calm   1.0 mph 69% 0.00 in WeatherDisplay:10.37 W/m2 SCT
19:30 75.8 °F 64.9 °F 30.05 in Calm   1.0 mph 69% 0.00 in WeatherDisplay:10.37 W/m2 SCT
19:40 75.7 °F 65.6 °F 30.05 in Calm     71% 0.00 in WeatherDisplay:10.37 W/m2 SCT
19:50 75.4 °F 64.9 °F 30.06 in Calm   1.0 mph 70% 0.00 in WeatherDisplay:10.37 W/m2 SCT
20:00 75.2 °F 65.6 °F 30.06 in Calm   1.0 mph 72% 0.00 in WeatherDisplay:10.37 W/m2 SCT
20:10 74.9 °F 65.6 °F 30.06 in Calm   1.0 mph 73% 0.00 in WeatherDisplay:10.37 W/m2 SCT
20:20 74.5 °F 65.6 °F 30.07 in Calm     74% 0.00 in WeatherDisplay:10.37 W/m2 SCT
20:30 74.0 °F 66.0 °F 30.07 in Calm     76% 0.00 in WeatherDisplay:10.37 W/m2 SCT
20:40 73.6 °F 65.6 °F 30.07 in Calm     76% 0.00 in WeatherDisplay:10.37 W/m2 SCT
20:50 73.1 °F 64.7 °F 30.07 in Calm     75% 0.00 in WeatherDisplay:10.37 W/m2 SCT
21:00 72.6 °F 64.2 °F 30.07 in Calm     75% 0.00 in WeatherDisplay:10.37 W/m2 SCT
21:10 72.1 °F 64.5 °F 30.07 in Calm     77% 0.00 in WeatherDisplay:10.37 W/m2 SCT
21:20 71.8 °F 64.6 °F 30.08 in Calm     78% 0.00 in WeatherDisplay:10.37 W/m2 SCT
21:30 71.4 °F 64.2 °F 30.08 in Calm     78% 0.00 in WeatherDisplay:10.37 W/m2 SCT
21:40 71.2 °F 64.7 °F 30.08 in Calm     80% 0.00 in WeatherDisplay:10.37 W/m2 SCT
21:50 70.7 °F 64.2 °F 30.08 in Calm     80% 0.00 in WeatherDisplay:10.37 W/m2 SCT
22:00 70.4 °F 64.3 °F 30.08 in Calm     81% 0.00 in WeatherDisplay:10.37 W/m2 SCT
22:10 70.1 °F 64.3 °F 30.08 in Calm     82% 0.00 in WeatherDisplay:10.37 W/m2 SCT
22:20 70.0 °F 64.3 °F 30.09 in Calm     82% 0.00 in WeatherDisplay:10.37 W/m2 SCT
22:30 69.9 °F 64.5 °F 30.09 in Calm     83% 0.00 in WeatherDisplay:10.37 W/m2 SCT
22:40 70.0 °F 64.9 °F 30.10 in Calm     84% 0.00 in WeatherDisplay:10.37 W/m2 SCT
22:50 70.1 °F 65.0 °F 30.10 in Calm     84% 0.00 in WeatherDisplay:10.37 W/m2 SCT
23:00 69.9 °F 64.9 °F 30.10 in Calm     84% 0.00 in WeatherDisplay:10.37 W/m2 SCT
23:10 69.8 °F 65.1 °F 30.10 in Calm     85% 0.00 in WeatherDisplay:10.37 W/m2 SCT
23:20 69.7 °F 65.0 °F 30.10 in Calm     85% 0.00 in WeatherDisplay:10.37 W/m2 SCT
23:30 69.5 °F 64.8 °F 30.10 in Calm     85% 0.00 in WeatherDisplay:10.37 W/m2 SCT
23:40 69.3 °F 64.9 °F 30.10 in Calm     86% 0.00 in WeatherDisplay:10.37 W/m2 SCT
23:50 69.3 °F 65.3 °F 30.10 in Calm     87% 0.00 in WeatherDisplay:10.37 W/m2 SCT
Piedmont Bend
Compliments of Weather Underground - 4 mb